sensor_id;sensor_type;location;lat;lon;timestamp;temperature;humidity
29031;DHT22;16122;50.236;11.734;2023-04-29T00:01:26;17.00;70.10
29031;DHT22;16122;50.236;11.734;2023-04-29T00:03:52;17.00;70.10
29031;DHT22;16122;50.236;11.734;2023-04-29T00:06:18;17.10;70.20
29031;DHT22;16122;50.236;11.734;2023-04-29T00:08:43;17.00;70.00
29031;DHT22;16122;50.236;11.734;2023-04-29T00:11:09;17.10;70.00
29031;DHT22;16122;50.236;11.734;2023-04-29T00:13:36;17.10;70.00
29031;DHT22;16122;50.236;11.734;2023-04-29T00:16:05;17.10;69.90
29031;DHT22;16122;50.236;11.734;2023-04-29T00:18:31;17.00;69.90
29031;DHT22;16122;50.236;11.734;2023-04-29T00:20:57;17.10;69.90
29031;DHT22;16122;50.236;11.734;2023-04-29T00:23:23;17.10;69.80
29031;DHT22;16122;50.236;11.734;2023-04-29T00:25:49;17.10;69.80
29031;DHT22;16122;50.236;11.734;2023-04-29T00:28:17;17.00;69.60
29031;DHT22;16122;50.236;11.734;2023-04-29T00:30:43;17.00;69.60
29031;DHT22;16122;50.236;11.734;2023-04-29T00:33:09;17.10;69.60
29031;DHT22;16122;50.236;11.734;2023-04-29T00:35:35;17.00;69.50
29031;DHT22;16122;50.236;11.734;2023-04-29T00:38:01;17.10;69.60
29031;DHT22;16122;50.236;11.734;2023-04-29T00:40:27;17.10;69.50
29031;DHT22;16122;50.236;11.734;2023-04-29T00:42:53;17.10;69.50
29031;DHT22;16122;50.236;11.734;2023-04-29T00:45:19;17.00;69.50
29031;DHT22;16122;50.236;11.734;2023-04-29T00:47:45;17.10;69.50
29031;DHT22;16122;50.236;11.734;2023-04-29T00:50:11;17.10;69.40
29031;DHT22;16122;50.236;11.734;2023-04-29T00:52:38;17.00;69.30
29031;DHT22;16122;50.236;11.734;2023-04-29T00:55:06;17.10;69.40
29031;DHT22;16122;50.236;11.734;2023-04-29T00:57:33;17.00;69.30
29031;DHT22;16122;50.236;11.734;2023-04-29T01:00:00;17.00;69.20
29031;DHT22;16122;50.236;11.734;2023-04-29T01:02:26;17.10;69.30
29031;DHT22;16122;50.236;11.734;2023-04-29T01:04:52;17.00;69.10
29031;DHT22;16122;50.236;11.734;2023-04-29T01:07:32;17.10;69.30
29031;DHT22;16122;50.236;11.734;2023-04-29T01:10:21;17.10;69.20
29031;DHT22;16122;50.236;11.734;2023-04-29T01:13:06;17.10;69.20
29031;DHT22;16122;50.236;11.734;2023-04-29T01:18:09;17.00;69.00
29031;DHT22;16122;50.236;11.734;2023-04-29T01:20:37;17.10;69.10
29031;DHT22;16122;50.236;11.734;2023-04-29T01:23:03;17.00;69.00
29031;DHT22;16122;50.236;11.734;2023-04-29T01:25:29;17.10;69.10
29031;DHT22;16122;50.236;11.734;2023-04-29T01:31:30;17.00;69.90
29031;DHT22;16122;50.236;11.734;2023-04-29T01:36:43;17.00;69.20
29031;DHT22;16122;50.236;11.734;2023-04-29T01:39:25;16.90;69.20
29031;DHT22;16122;50.236;11.734;2023-04-29T01:45:14;16.90;69.40
29031;DHT22;16122;50.236;11.734;2023-04-29T01:47:42;16.90;69.30
29031;DHT22;16122;50.236;11.734;2023-04-29T01:50:09;16.90;69.40
29031;DHT22;16122;50.236;11.734;2023-04-29T01:52:37;16.90;69.30
29031;DHT22;16122;50.236;11.734;2023-04-29T01:55:03;16.90;69.30
29031;DHT22;16122;50.236;11.734;2023-04-29T01:57:49;16.90;69.30
29031;DHT22;16122;50.236;11.734;2023-04-29T02:00:23;16.90;69.30
29031;DHT22;16122;50.236;11.734;2023-04-29T02:02:51;16.90;69.20
29031;DHT22;16122;50.236;11.734;2023-04-29T02:05:46;16.90;69.20
29031;DHT22;16122;50.236;11.734;2023-04-29T02:08:12;16.90;69.20
29031;DHT22;16122;50.236;11.734;2023-04-29T02:10:51;16.90;69.20
29031;DHT22;16122;50.236;11.734;2023-04-29T02:13:35;16.90;69.10
29031;DHT22;16122;50.236;11.734;2023-04-29T02:16:12;16.90;69.10
29031;DHT22;16122;50.236;11.734;2023-04-29T02:18:43;16.90;69.10
29031;DHT22;16122;50.236;11.734;2023-04-29T02:21:09;16.90;69.10
29031;DHT22;16122;50.236;11.734;2023-04-29T02:23:35;16.90;69.00
29031;DHT22;16122;50.236;11.734;2023-04-29T02:26:01;16.90;69.00
29031;DHT22;16122;50.236;11.734;2023-04-29T02:28:30;17.00;69.10
29031;DHT22;16122;50.236;11.734;2023-04-29T02:30:56;17.00;69.10
29031;DHT22;16122;50.236;11.734;2023-04-29T02:33:22;16.90;68.90
29031;DHT22;16122;50.236;11.734;2023-04-29T02:35:48;17.00;69.00
29031;DHT22;16122;50.236;11.734;2023-04-29T02:38:15;16.90;68.90
29031;DHT22;16122;50.236;11.734;2023-04-29T02:40:42;17.00;69.10
29031;DHT22;16122;50.236;11.734;2023-04-29T02:43:08;17.00;69.00
29031;DHT22;16122;50.236;11.734;2023-04-29T02:45:35;17.00;69.00
29031;DHT22;16122;50.236;11.734;2023-04-29T02:48:01;17.00;69.00
29031;DHT22;16122;50.236;11.734;2023-04-29T02:50:27;17.00;68.90
29031;DHT22;16122;50.236;11.734;2023-04-29T02:52:53;17.00;68.90
29031;DHT22;16122;50.236;11.734;2023-04-29T02:55:19;17.00;68.90
29031;DHT22;16122;50.236;11.734;2023-04-29T02:57:45;16.90;68.80
29031;DHT22;16122;50.236;11.734;2023-04-29T03:00:11;17.00;68.90
29031;DHT22;16122;50.236;11.734;2023-04-29T03:02:37;17.00;68.90
29031;DHT22;16122;50.236;11.734;2023-04-29T03:05:04;17.00;68.80
29031;DHT22;16122;50.236;11.734;2023-04-29T03:07:31;17.00;68.80
29031;DHT22;16122;50.236;11.734;2023-04-29T03:09:57;17.00;68.80
29031;DHT22;16122;50.236;11.734;2023-04-29T03:12:23;17.00;68.80
29031;DHT22;16122;50.236;11.734;2023-04-29T03:14:49;17.00;68.80
29031;DHT22;16122;50.236;11.734;2023-04-29T03:17:16;16.90;68.70
29031;DHT22;16122;50.236;11.734;2023-04-29T03:19:43;17.00;68.70
29031;DHT22;16122;50.236;11.734;2023-04-29T03:22:09;17.00;68.70
29031;DHT22;16122;50.236;11.734;2023-04-29T03:24:38;17.00;68.70
29031;DHT22;16122;50.236;11.734;2023-04-29T03:27:04;17.00;68.60
29031;DHT22;16122;50.236;11.734;2023-04-29T03:29:33;16.90;68.50
29031;DHT22;16122;50.236;11.734;2023-04-29T03:31:59;17.00;68.60
29031;DHT22;16122;50.236;11.734;2023-04-29T03:34:25;17.00;68.60
29031;DHT22;16122;50.236;11.734;2023-04-29T03:37:06;17.00;68.60
29031;DHT22;16122;50.236;11.734;2023-04-29T03:39:32;17.00;68.60
29031;DHT22;16122;50.236;11.734;2023-04-29T03:41:58;17.00;68.50
29031;DHT22;16122;50.236;11.734;2023-04-29T03:44:25;17.00;68.50
29031;DHT22;16122;50.236;11.734;2023-04-29T03:46:51;17.00;68.50
29031;DHT22;16122;50.236;11.734;2023-04-29T03:49:17;17.00;68.50
29031;DHT22;16122;50.236;11.734;2023-04-29T03:51:43;17.00;68.40
29031;DHT22;16122;50.236;11.734;2023-04-29T03:54:13;17.00;68.40
29031;DHT22;16122;50.236;11.734;2023-04-29T03:56:40;17.00;68.40
29031;DHT22;16122;50.236;11.734;2023-04-29T03:59:06;17.00;68.40
29031;DHT22;16122;50.236;11.734;2023-04-29T04:01:32;17.00;68.40
29031;DHT22;16122;50.236;11.734;2023-04-29T04:03:58;17.00;68.30
29031;DHT22;16122;50.236;11.734;2023-04-29T04:06:24;17.00;68.30
29031;DHT22;16122;50.236;11.734;2023-04-29T04:08:51;17.00;68.30
29031;DHT22;16122;50.236;11.734;2023-04-29T04:11:21;17.00;68.30
29031;DHT22;16122;50.236;11.734;2023-04-29T04:13:59;17.00;68.20
29031;DHT22;16122;50.236;11.734;2023-04-29T04:16:25;17.00;68.20
29031;DHT22;16122;50.236;11.734;2023-04-29T04:18:51;17.00;68.20
29031;DHT22;16122;50.236;11.734;2023-04-29T04:21:17;17.00;68.20
29031;DHT22;16122;50.236;11.734;2023-04-29T04:23:48;17.00;68.20
29031;DHT22;16122;50.236;11.734;2023-04-29T04:26:19;17.00;68.10
29031;DHT22;16122;50.236;11.734;2023-04-29T04:29:00;17.00;68.10
29031;DHT22;16122;50.236;11.734;2023-04-29T04:31:45;17.00;68.10
29031;DHT22;16122;50.236;11.734;2023-04-29T04:34:11;17.00;68.10
29031;DHT22;16122;50.236;11.734;2023-04-29T04:36:37;17.00;68.80
29031;DHT22;16122;50.236;11.734;2023-04-29T04:39:03;17.00;68.10
29031;DHT22;16122;50.236;11.734;2023-04-29T04:41:30;17.00;68.10
29031;DHT22;16122;50.236;11.734;2023-04-29T04:43:56;17.00;68.10
29031;DHT22;16122;50.236;11.734;2023-04-29T04:46:52;17.00;68.00
29031;DHT22;16122;50.236;11.734;2023-04-29T04:49:33;17.00;68.00
29031;DHT22;16122;50.236;11.734;2023-04-29T04:51:59;17.00;68.00
29031;DHT22;16122;50.236;11.734;2023-04-29T04:54:25;17.00;68.00
29031;DHT22;16122;50.236;11.734;2023-04-29T04:56:59;17.00;68.00
29031;DHT22;16122;50.236;11.734;2023-04-29T04:59:25;17.00;68.00
29031;DHT22;16122;50.236;11.734;2023-04-29T05:01:51;17.00;68.00
29031;DHT22;16122;50.236;11.734;2023-04-29T05:04:17;17.00;67.90
29031;DHT22;16122;50.236;11.734;2023-04-29T05:06:43;17.00;67.90
29031;DHT22;16122;50.236;11.734;2023-04-29T05:09:08;17.00;67.90
29031;DHT22;16122;50.236;11.734;2023-04-29T05:11:34;17.00;67.90
29031;DHT22;16122;50.236;11.734;2023-04-29T05:14:07;17.00;67.80
29031;DHT22;16122;50.236;11.734;2023-04-29T05:16:33;17.00;67.80
29031;DHT22;16122;50.236;11.734;2023-04-29T05:18:58;17.00;67.80
29031;DHT22;16122;50.236;11.734;2023-04-29T05:21:29;17.10;67.90
29031;DHT22;16122;50.236;11.734;2023-04-29T05:23:56;17.00;67.80
29031;DHT22;16122;50.236;11.734;2023-04-29T05:26:22;17.10;67.80
29031;DHT22;16122;50.236;11.734;2023-04-29T05:28:49;17.10;67.80
29031;DHT22;16122;50.236;11.734;2023-04-29T05:31:17;17.10;67.70
29031;DHT22;16122;50.236;11.734;2023-04-29T05:33:43;17.10;67.70
29031;DHT22;16122;50.236;11.734;2023-04-29T05:36:09;17.10;67.70
29031;DHT22;16122;50.236;11.734;2023-04-29T05:38:35;17.10;67.90
29031;DHT22;16122;50.236;11.734;2023-04-29T05:41:03;17.20;68.20
29031;DHT22;16122;50.236;11.734;2023-04-29T05:43:32;17.20;68.40
29031;DHT22;16122;50.236;11.734;2023-04-29T05:45:58;17.20;68.50
29031;DHT22;16122;50.236;11.734;2023-04-29T05:48:23;17.20;69.00
29031;DHT22;16122;50.236;11.734;2023-04-29T05:50:50;17.20;69.00
29031;DHT22;16122;50.236;11.734;2023-04-29T05:53:16;17.20;69.20
29031;DHT22;16122;50.236;11.734;2023-04-29T05:55:42;17.20;69.40
29031;DHT22;16122;50.236;11.734;2023-04-29T05:58:11;17.20;69.60
29031;DHT22;16122;50.236;11.734;2023-04-29T06:00:37;17.20;69.60
29031;DHT22;16122;50.236;11.734;2023-04-29T06:03:10;17.20;69.70
29031;DHT22;16122;50.236;11.734;2023-04-29T06:05:37;17.20;69.70
29031;DHT22;16122;50.236;11.734;2023-04-29T06:08:30;17.30;69.80
29031;DHT22;16122;50.236;11.734;2023-04-29T06:11:09;17.30;69.80
29031;DHT22;16122;50.236;11.734;2023-04-29T06:13:35;17.30;69.80
29031;DHT22;16122;50.236;11.734;2023-04-29T06:16:01;17.30;70.00
29031;DHT22;16122;50.236;11.734;2023-04-29T06:18:31;17.30;69.80
29031;DHT22;16122;50.236;11.734;2023-04-29T06:20:58;17.30;69.90
29031;DHT22;16122;50.236;11.734;2023-04-29T06:23:23;17.30;70.70
29031;DHT22;16122;50.236;11.734;2023-04-29T06:25:50;17.30;70.00
29031;DHT22;16122;50.236;11.734;2023-04-29T06:28:16;17.30;69.90
29031;DHT22;16122;50.236;11.734;2023-04-29T06:30:42;17.30;69.60
29031;DHT22;16122;50.236;11.734;2023-04-29T06:33:09;17.30;69.30
29031;DHT22;16122;50.236;11.734;2023-04-29T06:35:38;17.30;69.10
29031;DHT22;16122;50.236;11.734;2023-04-29T06:38:28;17.40;69.00
29031;DHT22;16122;50.236;11.734;2023-04-29T06:41:14;17.40;69.00
29031;DHT22;16122;50.236;11.734;2023-04-29T06:44:06;17.40;68.90
29031;DHT22;16122;50.236;11.734;2023-04-29T06:46:58;17.40;68.90
29031;DHT22;16122;50.236;11.734;2023-04-29T06:49:32;17.40;68.80
29031;DHT22;16122;50.236;11.734;2023-04-29T06:51:58;17.40;68.90
29031;DHT22;16122;50.236;11.734;2023-04-29T06:54:25;17.40;68.90
29031;DHT22;16122;50.236;11.734;2023-04-29T06:56:52;17.40;68.90
29031;DHT22;16122;50.236;11.734;2023-04-29T06:59:17;17.40;69.70
29031;DHT22;16122;50.236;11.734;2023-04-29T07:01:43;17.40;68.90
29031;DHT22;16122;50.236;11.734;2023-04-29T07:04:10;17.40;68.90
29031;DHT22;16122;50.236;11.734;2023-04-29T07:06:36;17.40;68.90
29031;DHT22;16122;50.236;11.734;2023-04-29T07:09:02;17.40;68.90
29031;DHT22;16122;50.236;11.734;2023-04-29T07:11:28;17.40;68.80
29031;DHT22;16122;50.236;11.734;2023-04-29T07:13:54;17.40;68.90
29031;DHT22;16122;50.236;11.734;2023-04-29T07:16:20;17.40;68.90
29031;DHT22;16122;50.236;11.734;2023-04-29T07:18:47;17.40;68.80
29031;DHT22;16122;50.236;11.734;2023-04-29T07:21:14;17.40;68.90
29031;DHT22;16122;50.236;11.734;2023-04-29T07:23:41;17.40;68.70
29031;DHT22;16122;50.236;11.734;2023-04-29T07:26:15;17.40;68.50
29031;DHT22;16122;50.236;11.734;2023-04-29T07:28:43;17.40;68.60
29031;DHT22;16122;50.236;11.734;2023-04-29T07:31:10;17.40;68.50
29031;DHT22;16122;50.236;11.734;2023-04-29T07:33:37;17.40;68.50
29031;DHT22;16122;50.236;11.734;2023-04-29T07:36:04;17.40;68.60
29031;DHT22;16122;50.236;11.734;2023-04-29T07:38:30;17.40;68.60
29031;DHT22;16122;50.236;11.734;2023-04-29T07:40:56;17.40;68.60
29031;DHT22;16122;50.236;11.734;2023-04-29T07:43:22;17.40;69.50
29031;DHT22;16122;50.236;11.734;2023-04-29T07:45:48;17.40;68.70
29031;DHT22;16122;50.236;11.734;2023-04-29T07:48:14;17.50;68.90
29031;DHT22;16122;50.236;11.734;2023-04-29T07:50:40;17.40;68.80
29031;DHT22;16122;50.236;11.734;2023-04-29T07:53:08;17.40;68.90
29031;DHT22;16122;50.236;11.734;2023-04-29T07:55:36;17.40;68.90
29031;DHT22;16122;50.236;11.734;2023-04-29T07:58:02;17.40;69.10
29031;DHT22;16122;50.236;11.734;2023-04-29T08:00:29;17.40;69.30
29031;DHT22;16122;50.236;11.734;2023-04-29T08:02:55;17.40;69.50
29031;DHT22;16122;50.236;11.734;2023-04-29T08:05:22;17.50;69.60
29031;DHT22;16122;50.236;11.734;2023-04-29T08:07:49;17.50;69.60
29031;DHT22;16122;50.236;11.734;2023-04-29T08:10:16;17.50;69.80
29031;DHT22;16122;50.236;11.734;2023-04-29T08:12:45;17.40;69.80
29031;DHT22;16122;50.236;11.734;2023-04-29T08:15:11;17.40;69.80
29031;DHT22;16122;50.236;11.734;2023-04-29T08:17:37;17.40;69.90
29031;DHT22;16122;50.236;11.734;2023-04-29T08:20:03;17.40;70.00
29031;DHT22;16122;50.236;11.734;2023-04-29T08:22:29;17.40;70.00
29031;DHT22;16122;50.236;11.734;2023-04-29T08:24:55;17.40;70.10
29031;DHT22;16122;50.236;11.734;2023-04-29T08:27:22;17.40;70.10
29031;DHT22;16122;50.236;11.734;2023-04-29T08:29:48;17.40;70.20
29031;DHT22;16122;50.236;11.734;2023-04-29T08:32:14;17.40;70.20
29031;DHT22;16122;50.236;11.734;2023-04-29T08:34:40;17.40;70.20
29031;DHT22;16122;50.236;11.734;2023-04-29T08:37:06;17.40;70.20
29031;DHT22;16122;50.236;11.734;2023-04-29T08:39:32;17.40;70.30
29031;DHT22;16122;50.236;11.734;2023-04-29T08:41:58;17.50;70.30
29031;DHT22;16122;50.236;11.734;2023-04-29T08:44:25;17.40;70.30
29031;DHT22;16122;50.236;11.734;2023-04-29T08:46:56;17.40;70.40
29031;DHT22;16122;50.236;11.734;2023-04-29T08:49:24;17.50;70.50
29031;DHT22;16122;50.236;11.734;2023-04-29T08:51:49;17.50;70.50
29031;DHT22;16122;50.236;11.734;2023-04-29T08:54:18;17.40;70.30
29031;DHT22;16122;50.236;11.734;2023-04-29T08:56:45;17.50;70.60
29031;DHT22;16122;50.236;11.734;2023-04-29T08:59:14;17.40;70.20
29031;DHT22;16122;50.236;11.734;2023-04-29T09:01:42;17.40;70.10
29031;DHT22;16122;50.236;11.734;2023-04-29T09:06:39;17.40;69.80
29031;DHT22;16122;50.236;11.734;2023-04-29T09:09:05;17.50;70.00
29031;DHT22;16122;50.236;11.734;2023-04-29T09:11:32;17.50;70.10
29031;DHT22;16122;50.236;11.734;2023-04-29T09:14:01;17.40;70.10
29031;DHT22;16122;50.236;11.734;2023-04-29T09:16:29;17.40;70.20
29031;DHT22;16122;50.236;11.734;2023-04-29T09:18:55;17.40;70.20
29031;DHT22;16122;50.236;11.734;2023-04-29T09:21:24;17.50;70.40
29031;DHT22;16122;50.236;11.734;2023-04-29T09:23:54;17.40;70.30
29031;DHT22;16122;50.236;11.734;2023-04-29T09:26:21;17.40;70.40
29031;DHT22;16122;50.236;11.734;2023-04-29T09:29:11;17.50;70.40
29031;DHT22;16122;50.236;11.734;2023-04-29T09:31:38;17.40;70.40
29031;DHT22;16122;50.236;11.734;2023-04-29T09:34:04;17.40;70.40
29031;DHT22;16122;50.236;11.734;2023-04-29T09:36:43;17.50;70.60
29031;DHT22;16122;50.236;11.734;2023-04-29T09:39:15;17.50;70.50
29031;DHT22;16122;50.236;11.734;2023-04-29T09:44:21;17.50;70.60
29031;DHT22;16122;50.236;11.734;2023-04-29T09:46:58;17.50;70.50
29031;DHT22;16122;50.236;11.734;2023-04-29T09:49:35;17.50;70.60
29031;DHT22;16122;50.236;11.734;2023-04-29T09:52:04;17.50;70.60
29031;DHT22;16122;50.236;11.734;2023-04-29T09:54:31;17.50;70.60
29031;DHT22;16122;50.236;11.734;2023-04-29T09:56:59;17.50;70.40
29031;DHT22;16122;50.236;11.734;2023-04-29T09:59:27;17.50;70.20
29031;DHT22;16122;50.236;11.734;2023-04-29T10:01:56;17.50;70.90
29031;DHT22;16122;50.236;11.734;2023-04-29T10:04:25;17.50;70.00
29031;DHT22;16122;50.236;11.734;2023-04-29T10:06:53;17.50;70.00
29031;DHT22;16122;50.236;11.734;2023-04-29T10:09:20;17.50;69.90
29031;DHT22;16122;50.236;11.734;2023-04-29T10:11:52;17.50;69.80
29031;DHT22;16122;50.236;11.734;2023-04-29T10:14:20;17.50;69.70
29031;DHT22;16122;50.236;11.734;2023-04-29T10:17:01;17.60;69.80
29031;DHT22;16122;50.236;11.734;2023-04-29T10:19:38;17.50;69.70
29031;DHT22;16122;50.236;11.734;2023-04-29T10:22:18;17.50;69.70
29031;DHT22;16122;50.236;11.734;2023-04-29T10:24:47;17.50;69.90
29031;DHT22;16122;50.236;11.734;2023-04-29T10:27:14;17.50;70.40
29031;DHT22;16122;50.236;11.734;2023-04-29T10:29:42;17.50;70.60
29031;DHT22;16122;50.236;11.734;2023-04-29T10:32:09;17.50;70.90
29031;DHT22;16122;50.236;11.734;2023-04-29T10:34:37;17.50;71.00
29031;DHT22;16122;50.236;11.734;2023-04-29T10:37:08;17.50;71.10
29031;DHT22;16122;50.236;11.734;2023-04-29T10:39:43;17.50;71.30
29031;DHT22;16122;50.236;11.734;2023-04-29T10:42:36;17.50;71.40
29031;DHT22;16122;50.236;11.734;2023-04-29T10:45:30;17.50;71.40
29031;DHT22;16122;50.236;11.734;2023-04-29T10:53:19;17.50;71.60
29031;DHT22;16122;50.236;11.734;2023-04-29T10:55:56;17.50;71.70
29031;DHT22;16122;50.236;11.734;2023-04-29T10:58:45;17.50;71.60
29031;DHT22;16122;50.236;11.734;2023-04-29T11:01:13;17.60;71.50
29031;DHT22;16122;50.236;11.734;2023-04-29T11:06:11;17.50;71.40
29031;DHT22;16122;50.236;11.734;2023-04-29T11:08:37;17.60;71.50
29031;DHT22;16122;50.236;11.734;2023-04-29T11:11:07;17.60;71.50
29031;DHT22;16122;50.236;11.734;2023-04-29T11:13:38;17.60;71.40
29031;DHT22;16122;50.236;11.734;2023-04-29T11:16:05;17.60;71.60
29031;DHT22;16122;50.236;11.734;2023-04-29T11:18:32;17.60;71.60
29031;DHT22;16122;50.236;11.734;2023-04-29T11:23:37;17.60;71.30
29031;DHT22;16122;50.236;11.734;2023-04-29T11:26:03;17.60;71.50
29031;DHT22;16122;50.236;11.734;2023-04-29T11:28:30;17.60;71.60
29031;DHT22;16122;50.236;11.734;2023-04-29T11:30:57;17.60;71.60
29031;DHT22;16122;50.236;11.734;2023-04-29T11:33:23;17.60;71.60
29031;DHT22;16122;50.236;11.734;2023-04-29T11:35:50;17.70;71.90
29031;DHT22;16122;50.236;11.734;2023-04-29T11:38:16;17.60;71.80
29031;DHT22;16122;50.236;11.734;2023-04-29T11:40:48;17.60;72.00
29031;DHT22;16122;50.236;11.734;2023-04-29T11:43:21;17.60;72.20
29031;DHT22;16122;50.236;11.734;2023-04-29T11:45:48;17.60;72.30
29031;DHT22;16122;50.236;11.734;2023-04-29T11:48:22;17.60;72.40
29031;DHT22;16122;50.236;11.734;2023-04-29T11:51:07;17.60;72.50
29031;DHT22;16122;50.236;11.734;2023-04-29T11:53:33;17.60;72.50
29031;DHT22;16122;50.236;11.734;2023-04-29T11:55:59;17.60;72.70
29031;DHT22;16122;50.236;11.734;2023-04-29T11:58:25;17.60;73.00
29031;DHT22;16122;50.236;11.734;2023-04-29T12:00:51;17.60;72.50
29031;DHT22;16122;50.236;11.734;2023-04-29T12:03:19;17.60;72.30
29031;DHT22;16122;50.236;11.734;2023-04-29T12:05:50;17.60;72.20
29031;DHT22;16122;50.236;11.734;2023-04-29T12:08:24;17.60;72.10
29031;DHT22;16122;50.236;11.734;2023-04-29T12:10:51;17.60;72.40
29031;DHT22;16122;50.236;11.734;2023-04-29T12:13:18;17.60;72.50
29031;DHT22;16122;50.236;11.734;2023-04-29T12:15:48;17.70;72.50
29031;DHT22;16122;50.236;11.734;2023-04-29T12:18:16;17.70;72.70
29031;DHT22;16122;50.236;11.734;2023-04-29T12:20:43;17.70;72.40
29031;DHT22;16122;50.236;11.734;2023-04-29T12:23:13;17.60;72.00
29031;DHT22;16122;50.236;11.734;2023-04-29T12:25:40;17.60;72.00
29031;DHT22;16122;50.236;11.734;2023-04-29T12:28:11;17.60;72.00
29031;DHT22;16122;50.236;11.734;2023-04-29T12:30:37;17.60;72.10
29031;DHT22;16122;50.236;11.734;2023-04-29T12:33:03;17.60;72.20
29031;DHT22;16122;50.236;11.734;2023-04-29T12:35:30;17.60;72.10
29031;DHT22;16122;50.236;11.734;2023-04-29T12:37:57;17.60;72.00
29031;DHT22;16122;50.236;11.734;2023-04-29T12:40:24;17.60;72.00
29031;DHT22;16122;50.236;11.734;2023-04-29T12:42:52;17.60;72.00
29031;DHT22;16122;50.236;11.734;2023-04-29T12:45:30;17.60;72.00
29031;DHT22;16122;50.236;11.734;2023-04-29T12:47:57;17.60;71.90
29031;DHT22;16122;50.236;11.734;2023-04-29T12:52:59;17.60;71.90
29031;DHT22;16122;50.236;11.734;2023-04-29T12:55:25;17.60;71.80
29031;DHT22;16122;50.236;11.734;2023-04-29T12:57:50;17.60;71.60
29031;DHT22;16122;50.236;11.734;2023-04-29T13:00:16;17.50;71.50
29031;DHT22;16122;50.236;11.734;2023-04-29T13:02:45;17.60;71.50
29031;DHT22;16122;50.236;11.734;2023-04-29T13:05:12;17.60;71.50
29031;DHT22;16122;50.236;11.734;2023-04-29T13:07:37;17.60;71.10
29031;DHT22;16122;50.236;11.734;2023-04-29T13:10:04;17.60;71.00
29031;DHT22;16122;50.236;11.734;2023-04-29T13:12:33;17.60;70.90
29031;DHT22;16122;50.236;11.734;2023-04-29T13:14:59;17.60;70.80
29031;DHT22;16122;50.236;11.734;2023-04-29T13:17:25;17.60;70.80
29031;DHT22;16122;50.236;11.734;2023-04-29T13:19:51;17.60;70.70
29031;DHT22;16122;50.236;11.734;2023-04-29T13:22:17;17.60;70.60
29031;DHT22;16122;50.236;11.734;2023-04-29T13:24:43;17.60;70.50
29031;DHT22;16122;50.236;11.734;2023-04-29T13:27:09;17.60;70.40
29031;DHT22;16122;50.236;11.734;2023-04-29T13:29:35;17.60;70.30
29031;DHT22;16122;50.236;11.734;2023-04-29T13:32:01;17.60;70.20
29031;DHT22;16122;50.236;11.734;2023-04-29T13:34:27;17.60;70.20
29031;DHT22;16122;50.236;11.734;2023-04-29T13:36:53;17.50;70.00
29031;DHT22;16122;50.236;11.734;2023-04-29T13:39:18;17.60;70.10
29031;DHT22;16122;50.236;11.734;2023-04-29T13:41:46;17.60;70.30
29031;DHT22;16122;50.236;11.734;2023-04-29T13:44:12;17.60;70.50
29031;DHT22;16122;50.236;11.734;2023-04-29T13:46:38;17.50;70.10
29031;DHT22;16122;50.236;11.734;2023-04-29T13:49:04;17.50;69.90
29031;DHT22;16122;50.236;11.734;2023-04-29T13:51:30;17.50;69.80
29031;DHT22;16122;50.236;11.734;2023-04-29T13:53:56;17.50;69.80
29031;DHT22;16122;50.236;11.734;2023-04-29T13:56:23;17.50;69.80
29031;DHT22;16122;50.236;11.734;2023-04-29T13:58:50;17.50;69.80
29031;DHT22;16122;50.236;11.734;2023-04-29T14:01:16;17.50;69.80
29031;DHT22;16122;50.236;11.734;2023-04-29T14:03:42;17.50;69.70
29031;DHT22;16122;50.236;11.734;2023-04-29T14:06:09;17.50;69.70
29031;DHT22;16122;50.236;11.734;2023-04-29T14:08:34;17.50;69.60
29031;DHT22;16122;50.236;11.734;2023-04-29T14:11:00;17.50;69.60
29031;DHT22;16122;50.236;11.734;2023-04-29T14:13:26;17.50;69.50
29031;DHT22;16122;50.236;11.734;2023-04-29T14:15:52;17.50;69.90
29031;DHT22;16122;50.236;11.734;2023-04-29T14:18:19;17.50;69.40
29031;DHT22;16122;50.236;11.734;2023-04-29T14:20:45;17.50;69.50
29031;DHT22;16122;50.236;11.734;2023-04-29T14:23:10;17.40;69.40
29031;DHT22;16122;50.236;11.734;2023-04-29T14:25:36;17.50;69.50
29031;DHT22;16122;50.236;11.734;2023-04-29T14:28:02;17.40;69.40
29031;DHT22;16122;50.236;11.734;2023-04-29T14:30:28;17.40;69.60
29031;DHT22;16122;50.236;11.734;2023-04-29T14:32:54;17.40;69.70
29031;DHT22;16122;50.236;11.734;2023-04-29T14:35:20;17.40;69.80
29031;DHT22;16122;50.236;11.734;2023-04-29T14:37:47;17.40;69.80
29031;DHT22;16122;50.236;11.734;2023-04-29T14:40:14;17.40;69.70
29031;DHT22;16122;50.236;11.734;2023-04-29T14:42:40;17.30;69.70
29031;DHT22;16122;50.236;11.734;2023-04-29T14:45:06;17.30;69.70
29031;DHT22;16122;50.236;11.734;2023-04-29T14:47:32;17.30;69.70
29031;DHT22;16122;50.236;11.734;2023-04-29T14:49:58;17.40;69.70
29031;DHT22;16122;50.236;11.734;2023-04-29T14:52:24;17.40;69.80
29031;DHT22;16122;50.236;11.734;2023-04-29T14:54:50;17.40;69.70
29031;DHT22;16122;50.236;11.734;2023-04-29T14:57:16;17.40;69.70
29031;DHT22;16122;50.236;11.734;2023-04-29T14:59:42;17.40;69.70
29031;DHT22;16122;50.236;11.734;2023-04-29T15:02:08;17.30;69.60
29031;DHT22;16122;50.236;11.734;2023-04-29T15:04:33;17.40;69.70
29031;DHT22;16122;50.236;11.734;2023-04-29T15:06:59;17.40;69.70
29031;DHT22;16122;50.236;11.734;2023-04-29T15:09:25;17.40;69.50
29031;DHT22;16122;50.236;11.734;2023-04-29T15:11:52;17.40;69.50
29031;DHT22;16122;50.236;11.734;2023-04-29T15:14:17;17.30;69.30
29031;DHT22;16122;50.236;11.734;2023-04-29T15:16:43;17.40;69.40
29031;DHT22;16122;50.236;11.734;2023-04-29T15:19:09;17.30;69.30
29031;DHT22;16122;50.236;11.734;2023-04-29T15:21:35;17.30;69.40
29031;DHT22;16122;50.236;11.734;2023-04-29T15:24:01;17.30;69.40
29031;DHT22;16122;50.236;11.734;2023-04-29T15:26:27;17.40;69.60
29031;DHT22;16122;50.236;11.734;2023-04-29T15:28:53;17.30;69.60
29031;DHT22;16122;50.236;11.734;2023-04-29T15:31:19;17.40;69.60
29031;DHT22;16122;50.236;11.734;2023-04-29T15:33:44;17.30;69.50
29031;DHT22;16122;50.236;11.734;2023-04-29T15:36:10;17.40;69.60
29031;DHT22;16122;50.236;11.734;2023-04-29T15:38:36;17.30;69.40
29031;DHT22;16122;50.236;11.734;2023-04-29T15:41:02;17.30;69.40
29031;DHT22;16122;50.236;11.734;2023-04-29T15:43:30;17.40;69.50
29031;DHT22;16122;50.236;11.734;2023-04-29T15:45:58;17.30;69.40
29031;DHT22;16122;50.236;11.734;2023-04-29T15:48:24;17.30;69.30
29031;DHT22;16122;50.236;11.734;2023-04-29T15:50:50;17.30;69.40
29031;DHT22;16122;50.236;11.734;2023-04-29T15:53:16;17.30;69.30